Time;durP1;ratioP1;P1;durP2;ratioP2;P2;SDS_P1;SDS_P2;PMS_P1;PMS_P2;Temp;Humidity;BMP_temperature;BMP_pressure;BME280_temperature;BME280_humidity;BME280_pressure;Samples;Min_cycle;Max_cycle;Signal;HPM_P1;HPM_P2
2022/04/27 00:01:41;;;;;;;;;;;6.60;99.90;;;;;;5135984;27;19914;-74
2022/04/27 00:04:06;;;;;;;;;;;6.60;99.90;;;;;;5155498;27;19908;-75
2022/04/27 00:06:32;;;;;;;;;;;6.50;99.90;;;;;;5135989;27;20244;-75
2022/04/27 00:08:57;;;;;;;;;;;6.60;99.90;;;;;;5154081;27;19907;-74
2022/04/27 00:11:23;;;;;;;;;;;6.60;99.90;;;;;;5154603;27;19907;-75
2022/04/27 00:13:49;;;;;;;;;;;6.50;99.90;;;;;;5153817;27;20382;-74
2022/04/27 00:16:14;;;;;;;;;;;6.40;99.90;;;;;;5154401;27;19915;-75
2022/04/27 00:18:40;;;;;;;;;;;6.30;99.90;;;;;;5154392;27;20276;-75
2022/04/27 00:21:05;;;;;;;;;;;6.30;99.90;;;;;;5154047;27;19962;-75
2022/04/27 00:23:32;;;;;;;;;;;6.30;99.90;;;;;;5154545;27;20260;-74
2022/04/27 00:25:58;;;;;;;;;;;6.30;99.90;;;;;;5153621;27;20006;-75
2022/04/27 00:28:24;;;;;;;;;;;6.30;99.90;;;;;;5154412;27;20380;-75
2022/04/27 00:30:49;;;;;;;;;;;6.30;99.90;;;;;;5153711;27;19907;-75
2022/04/27 00:33:15;;;;;;;;;;;6.30;99.90;;;;;;5154203;27;19907;-75
2022/04/27 00:35:41;;;;;;;;;;;6.40;99.90;;;;;;5154009;27;20378;-75
2022/04/27 00:38:06;;;;;;;;;;;6.40;99.90;;;;;;5153810;27;19908;-75
2022/04/27 00:40:32;;;;;;;;;;;6.40;99.90;;;;;;5154372;27;19907;-75
2022/04/27 00:42:57;;;;;;;;;;;6.40;99.90;;;;;;5153572;27;20110;-75
2022/04/27 00:45:23;;;;;;;;;;;6.40;99.90;;;;;;5153990;27;19915;-75
2022/04/27 00:47:49;;;;;;;;;;;6.40;99.90;;;;;;5153708;27;19950;-74
2022/04/27 00:50:14;;;;;;;;;;;6.30;99.90;;;;;;5154176;27;19978;-74
2022/04/27 00:52:40;;;;;;;;;;;6.30;99.90;;;;;;5154251;27;20340;-75
2022/04/27 00:55:06;;;;;;;;;;;6.20;99.90;;;;;;5153228;27;20364;-74
2022/04/27 00:57:33;;;;;;;;;;;6.10;99.90;;;;;;5156750;27;19923;-75
2022/04/27 00:59:58;;;;;;;;;;;6.00;99.90;;;;;;5157548;27;19960;-74
2022/04/27 01:02:24;;;;;;;;;;;6.00;99.90;;;;;;5158159;27;19915;-75
2022/04/27 01:04:50;;;;;;;;;;;6.00;99.90;;;;;;5157295;27;19907;-74
2022/04/27 01:07:16;;;;;;;;;;;6.00;99.90;;;;;;5157851;27;20320;-75
2022/04/27 01:09:42;;;;;;;;;;;5.90;99.90;;;;;;5157715;27;19907;-75
2022/04/27 01:12:08;;;;;;;;;;;6.00;99.90;;;;;;5157347;27;20014;-74
2022/04/27 01:14:40;;;;;;;;;;;5.90;99.90;;;;;;5157911;27;20340;-76
2022/04/27 01:17:05;;;;;;;;;;;5.90;99.90;;;;;;5157003;27;19941;-77
2022/04/27 01:19:31;;;;;;;;;;;5.90;99.90;;;;;;5157643;27;20256;-74
2022/04/27 01:21:57;;;;;;;;;;;5.90;99.90;;;;;;5156872;27;20271;-73
2022/04/27 01:24:26;;;;;;;;;;;5.90;99.90;;;;;;5139233;27;20296;-74
2022/04/27 01:26:53;;;;;;;;;;;5.80;99.90;;;;;;5156599;27;19915;-74
2022/04/27 01:29:19;;;;;;;;;;;5.90;99.90;;;;;;5157527;27;19997;-74
2022/04/27 01:31:45;;;;;;;;;;;5.90;99.90;;;;;;5157246;27;19911;-74
2022/04/27 01:34:11;;;;;;;;;;;5.90;99.90;;;;;;5156876;27;19955;-74
2022/04/27 01:36:36;;;;;;;;;;;5.80;99.90;;;;;;5157220;27;19914;-74
2022/04/27 01:39:02;;;;;;;;;;;5.80;99.90;;;;;;5156578;27;20351;-73
2022/04/27 01:41:28;;;;;;;;;;;5.80;99.90;;;;;;5156897;27;19907;-74
2022/04/27 01:43:54;;;;;;;;;;;5.70;99.90;;;;;;5156313;27;19911;-73
2022/04/27 01:46:19;;;;;;;;;;;5.70;99.90;;;;;;5156868;27;19922;-74
2022/04/27 01:48:45;;;;;;;;;;;5.70;99.90;;;;;;5157168;27;19911;-74
2022/04/27 01:51:11;;;;;;;;;;;5.70;99.90;;;;;;5156188;27;19918;-74
2022/04/27 01:56:21;;;;;;;;;;;5.70;99.90;;;;;;5156171;27;20382;-73
2022/04/27 01:58:47;;;;;;;;;;;5.80;99.90;;;;;;5137909;27;20221;-74
2022/04/27 02:01:13;;;;;;;;;;;5.80;99.90;;;;;;5156512;27;20382;-76
2022/04/27 02:03:39;;;;;;;;;;;5.70;99.90;;;;;;5157093;27;20006;-76
2022/04/27 02:06:05;;;;;;;;;;;5.70;99.90;;;;;;5156279;27;19980;-76
2022/04/27 02:08:31;;;;;;;;;;;5.70;99.90;;;;;;5156117;27;19915;-75
2022/04/27 02:10:57;;;;;;;;;;;5.70;99.90;;;;;;5156077;27;19907;-74
2022/04/27 02:13:25;;;;;;;;;;;5.70;99.90;;;;;;5156097;27;20379;-75
2022/04/27 02:15:51;;;;;;;;;;;5.60;99.90;;;;;;5156372;27;19907;-75
2022/04/27 02:18:19;;;;;;;;;;;5.70;99.90;;;;;;5156380;27;20001;-74
2022/04/27 02:20:47;;;;;;;;;;;5.70;99.90;;;;;;5156660;27;19915;-74
2022/04/27 02:23:13;;;;;;;;;;;5.60;99.90;;;;;;5155935;27;19907;-74
2022/04/27 02:25:39;;;;;;;;;;;5.60;99.90;;;;;;5156561;27;19923;-74
2022/04/27 02:28:07;;;;;;;;;;;5.50;99.90;;;;;;5155423;27;19997;-75
2022/04/27 02:30:33;;;;;;;;;;;5.40;99.90;;;;;;5156346;27;19993;-75
2022/04/27 02:32:58;;;;;;;;;;;5.30;99.90;;;;;;5155747;27;20002;-74
2022/04/27 02:35:24;;;;;;;;;;;5.30;99.90;;;;;;5156008;27;19911;-74
2022/04/27 02:37:49;;;;;;;;;;;5.30;99.90;;;;;;5156152;27;19960;-74
2022/04/27 02:40:15;;;;;;;;;;;5.30;99.90;;;;;;5155175;27;19907;-74
2022/04/27 02:42:41;;;;;;;;;;;5.30;99.90;;;;;;5156122;27;19907;-74
2022/04/27 02:45:06;;;;;;;;;;;5.30;99.90;;;;;;5155420;27;19914;-74
2022/04/27 02:47:32;;;;;;;;;;;5.30;99.90;;;;;;5156023;27;19907;-74
2022/04/27 02:52:41;;;;;;;;;;;5.20;99.90;;;;;;5155383;27;20394;-74
2022/04/27 02:55:07;;;;;;;;;;;5.20;99.90;;;;;;5155322;27;19946;-74
2022/04/27 02:57:33;;;;;;;;;;;5.10;99.90;;;;;;5137182;27;20283;-74
2022/04/27 02:59:58;;;;;;;;;;;5.10;99.90;;;;;;5155128;27;19918;-74
2022/04/27 03:02:24;;;;;;;;;;;5.10;99.90;;;;;;5137188;27;19911;-74
2022/04/27 03:04:49;;;;;;;;;;;5.10;99.90;;;;;;5155893;27;19907;-74
2022/04/27 03:07:15;;;;;;;;;;;5.10;99.90;;;;;;5154758;27;20378;-74
2022/04/27 03:09:40;;;;;;;;;;;5.10;99.90;;;;;;5155624;27;19914;-74
2022/04/27 03:12:06;;;;;;;;;;;5.00;99.90;;;;;;5136422;27;20340;-74
2022/04/27 03:14:32;;;;;;;;;;;5.00;99.90;;;;;;5155531;27;19907;-74
2022/04/27 03:16:57;;;;;;;;;;;4.90;99.90;;;;;;5154639;27;20346;-74
2022/04/27 03:19:23;;;;;;;;;;;4.80;99.90;;;;;;5154736;27;19907;-74
2022/04/27 03:21:50;;;;;;;;;;;4.70;99.90;;;;;;5155035;27;20355;-74
2022/04/27 03:24:15;;;;;;;;;;;4.70;99.90;;;;;;5154537;27;19982;-74
2022/04/27 03:26:41;;;;;;;;;;;4.70;99.90;;;;;;5154926;27;20371;-74
2022/04/27 03:29:06;;;;;;;;;;;4.70;99.90;;;;;;5136181;27;19908;-74
2022/04/27 03:31:35;;;;;;;;;;;4.70;99.90;;;;;;5154995;27;19914;-74
2022/04/27 03:34:00;;;;;;;;;;;4.50;99.90;;;;;;5154661;27;20245;-74
2022/04/27 03:36:26;;;;;;;;;;;4.50;99.90;;;;;;5155195;27;19908;-74
2022/04/27 03:38:52;;;;;;;;;;;4.50;99.90;;;;;;5154952;27;19911;-74
2022/04/27 03:41:20;;;;;;;;;;;4.50;99.90;;;;;;5154614;27;19914;-74
2022/04/27 03:43:46;;;;;;;;;;;4.40;99.90;;;;;;5154644;27;20360;-74
2022/04/27 03:46:11;;;;;;;;;;;4.50;99.90;;;;;;5154427;27;19922;-74
2022/04/27 03:48:37;;;;;;;;;;;4.60;99.90;;;;;;5154555;27;20268;-75
2022/04/27 03:51:04;;;;;;;;;;;4.60;99.90;;;;;;5154024;27;19908;-75
2022/04/27 03:53:29;;;;;;;;;;;4.60;99.90;;;;;;5154851;27;19907;-75
2022/04/27 03:55:55;;;;;;;;;;;4.70;99.90;;;;;;5153900;27;19925;-74
2022/04/27 03:58:21;;;;;;;;;;;4.60;99.90;;;;;;5153991;27;19958;-74
2022/04/27 04:00:46;;;;;;;;;;;4.50;99.90;;;;;;5154551;27;20361;-74
2022/04/27 04:03:12;;;;;;;;;;;4.60;99.90;;;;;;5153823;27;20264;-75
2022/04/27 04:05:38;;;;;;;;;;;4.40;99.90;;;;;;5154524;27;19923;-74
2022/04/27 04:08:04;;;;;;;;;;;4.40;99.90;;;;;;5154124;27;20390;-75
2022/04/27 04:10:30;;;;;;;;;;;4.40;99.90;;;;;;5154432;27;19918;-75
2022/04/27 04:12:56;;;;;;;;;;;4.30;99.90;;;;;;5154845;27;19907;-75
2022/04/27 04:15:22;;;;;;;;;;;4.30;99.90;;;;;;5154417;27;19914;-75
2022/04/27 04:17:47;;;;;;;;;;;4.30;99.90;;;;;;5154686;27;19918;-76
2022/04/27 04:20:14;;;;;;;;;;;4.20;99.90;;;;;;5153762;27;19907;-75
2022/04/27 04:22:40;;;;;;;;;;;4.20;99.90;;;;;;5135966;27;20317;-75
2022/04/27 04:30:34;;;;;;;;;;;4.20;99.90;;;;;;5155356;27;19991;-74
2022/04/27 04:32:59;;;;;;;;;;;4.10;99.90;;;;;;5158411;27;19990;-74
2022/04/27 04:35:25;;;;;;;;;;;4.10;99.90;;;;;;5158360;27;19960;-74
2022/04/27 04:37:51;;;;;;;;;;;4.10;99.90;;;;;;5158871;27;19907;-74
2022/04/27 04:40:16;;;;;;;;;;;4.10;99.90;;;;;;5157862;27;19914;-75
2022/04/27 04:42:42;;;;;;;;;;;4.10;99.90;;;;;;5158425;27;19954;-74
2022/04/27 04:45:08;;;;;;;;;;;4.10;99.90;;;;;;5157502;27;20313;-75
2022/04/27 04:47:33;;;;;;;;;;;4.10;99.90;;;;;;5139894;27;19914;-74
2022/04/27 04:49:59;;;;;;;;;;;4.10;99.90;;;;;;5158042;27;20320;-74
2022/04/27 04:52:24;;;;;;;;;;;4.20;99.90;;;;;;5157703;27;20014;-75
2022/04/27 04:54:50;;;;;;;;;;;4.10;99.90;;;;;;5158402;27;19907;-74
2022/04/27 04:57:15;;;;;;;;;;;4.20;99.90;;;;;;5157720;27;19926;-74
2022/04/27 04:59:41;;;;;;;;;;;4.20;99.90;;;;;;5158005;27;19911;-74
2022/04/27 05:02:07;;;;;;;;;;;4.20;99.90;;;;;;5157309;27;20413;-74
2022/04/27 05:04:32;;;;;;;;;;;4.30;99.90;;;;;;5139450;27;19907;-74
2022/04/27 05:06:58;;;;;;;;;;;4.20;99.90;;;;;;5157995;27;20360;-74
2022/04/27 05:09:23;;;;;;;;;;;4.20;99.90;;;;;;5157310;27;20097;-74
2022/04/27 05:11:49;;;;;;;;;;;4.20;99.90;;;;;;5157725;27;20379;-74
2022/04/27 05:14:14;;;;;;;;;;;4.30;99.90;;;;;;5157170;27;19937;-74
2022/04/27 05:16:40;;;;;;;;;;;4.30;99.90;;;;;;5157884;27;19907;-74
2022/04/27 05:19:05;;;;;;;;;;;4.40;99.90;;;;;;5156957;27;19958;-75
2022/04/27 05:21:31;;;;;;;;;;;4.40;99.90;;;;;;5157533;27;20347;-74
2022/04/27 05:23:57;;;;;;;;;;;4.30;99.90;;;;;;5157365;27;19994;-74
2022/04/27 05:26:22;;;;;;;;;;;4.30;99.90;;;;;;5156692;27;19915;-74
2022/04/27 05:34:16;;;;;;;;;;;4.50;99.90;;;;;;5156709;27;19913;-75
2022/04/27 05:36:41;;;;;;;;;;;4.50;99.90;;;;;;5157504;27;19907;-75
2022/04/27 05:39:07;;;;;;;;;;;4.60;99.90;;;;;;5156485;27;20370;-75
2022/04/27 05:41:34;;;;;;;;;;;4.60;99.90;;;;;;5156802;27;19910;-75
2022/04/27 05:44:02;;;;;;;;;;;4.70;99.90;;;;;;5156376;27;19907;-75
2022/04/27 05:46:28;;;;;;;;;;;4.80;99.90;;;;;;5156521;27;19967;-75
2022/04/27 05:48:54;;;;;;;;;;;4.90;99.90;;;;;;5157034;27;20292;-75
2022/04/27 05:51:19;;;;;;;;;;;5.10;99.90;;;;;;5156144;27;19907;-75
2022/04/27 05:53:45;;;;;;;;;;;5.20;99.90;;;;;;5157027;27;19907;-75
2022/04/27 05:56:12;;;;;;;;;;;5.40;99.90;;;;;;5155375;27;20350;-75
2022/04/27 05:58:37;;;;;;;;;;;5.50;99.90;;;;;;5156355;27;20440;-74
2022/04/27 06:01:03;;;;;;;;;;;5.60;99.90;;;;;;5156571;27;19950;-75
2022/04/27 06:03:29;;;;;;;;;;;5.80;99.90;;;;;;5155588;27;20364;-74
2022/04/27 06:05:55;;;;;;;;;;;5.80;99.90;;;;;;5156128;27;19919;-75
2022/04/27 06:08:20;;;;;;;;;;;5.90;99.90;;;;;;5155528;27;20355;-75
2022/04/27 06:10:46;;;;;;;;;;;6.00;99.90;;;;;;5157098;27;19998;-75
2022/04/27 06:13:13;;;;;;;;;;;6.20;99.90;;;;;;5155664;27;20245;-74
2022/04/27 06:15:39;;;;;;;;;;;6.30;99.90;;;;;;5156505;27;19911;-75
2022/04/27 06:18:05;;;;;;;;;;;6.50;99.90;;;;;;5138016;27;19912;-74
2022/04/27 06:20:30;;;;;;;;;;;6.60;99.90;;;;;;5155746;27;19911;-75
2022/04/27 06:22:56;;;;;;;;;;;6.70;99.90;;;;;;5156599;27;19914;-74
2022/04/27 06:25:22;;;;;;;;;;;6.80;99.90;;;;;;5155710;27;19914;-75
2022/04/27 06:27:48;;;;;;;;;;;6.90;99.90;;;;;;5156210;27;19941;-74
2022/04/27 06:30:14;;;;;;;;;;;7.10;99.90;;;;;;5155602;27;19907;-75
2022/04/27 06:32:40;;;;;;;;;;;7.30;99.90;;;;;;5155881;27;19911;-75
2022/04/27 06:35:06;;;;;;;;;;;7.40;99.90;;;;;;5155544;27;19907;-75
2022/04/27 06:37:32;;;;;;;;;;;7.50;99.90;;;;;;5154825;27;19907;-75
2022/04/27 06:39:57;;;;;;;;;;;7.60;99.90;;;;;;5155865;27;19907;-74
2022/04/27 06:42:23;;;;;;;;;;;7.70;99.90;;;;;;5154963;27;20257;-75
2022/04/27 06:44:49;;;;;;;;;;;7.90;99.90;;;;;;5155530;27;19913;-74
2022/04/27 06:47:14;;;;;;;;;;;8.00;99.90;;;;;;5155032;27;19987;-75
2022/04/27 06:49:40;;;;;;;;;;;8.10;99.90;;;;;;5156048;27;19907;-75
2022/04/27 06:52:05;;;;;;;;;;;8.10;99.90;;;;;;5155137;27;20333;-75
2022/04/27 06:54:31;;;;;;;;;;;8.30;99.90;;;;;;5136362;27;19907;-74
2022/04/27 06:56:57;;;;;;;;;;;8.40;99.90;;;;;;5155660;27;19978;-74
2022/04/27 06:59:23;;;;;;;;;;;8.50;99.90;;;;;;5154816;27;19907;-74
2022/04/27 07:01:49;;;;;;;;;;;8.60;99.90;;;;;;5155519;27;19918;-74
2022/04/27 07:04:14;;;;;;;;;;;8.80;99.90;;;;;;5154539;27;19948;-74
2022/04/27 07:06:40;;;;;;;;;;;9.00;99.90;;;;;;5155030;27;19915;-74
2022/04/27 07:09:11;;;;;;;;;;;9.10;99.90;;;;;;5155186;27;19930;-75
2022/04/27 07:11:37;;;;;;;;;;;9.20;99.90;;;;;;5154597;27;19911;-74
2022/04/27 07:14:02;;;;;;;;;;;9.40;99.90;;;;;;5155058;27;20381;-73
2022/04/27 07:16:28;;;;;;;;;;;9.60;99.90;;;;;;5154259;27;19907;-74
2022/04/27 07:18:54;;;;;;;;;;;9.80;99.90;;;;;;5155373;27;19930;-74
2022/04/27 07:21:19;;;;;;;;;;;9.90;99.90;;;;;;5154250;27;20002;-74
2022/04/27 07:23:45;;;;;;;;;;;10.10;99.90;;;;;;5154838;27;19915;-75
2022/04/27 07:26:11;;;;;;;;;;;10.40;99.90;;;;;;5154782;27;19915;-74
2022/04/27 07:28:37;;;;;;;;;;;10.50;99.90;;;;;;5154329;27;19907;-74
2022/04/27 07:31:02;;;;;;;;;;;10.70;99.90;;;;;;5154754;27;19907;-75
2022/04/27 07:33:28;;;;;;;;;;;10.80;99.90;;;;;;5153937;27;19951;-74
2022/04/27 07:35:53;;;;;;;;;;;11.00;99.90;;;;;;5154435;27;19915;-75
2022/04/27 07:38:19;;;;;;;;;;;11.10;99.90;;;;;;5154459;27;19907;-74
2022/04/27 07:40:45;;;;;;;;;;;11.30;99.90;;;;;;5154427;27;20002;-75
2022/04/27 07:43:10;;;;;;;;;;;11.40;99.90;;;;;;5154779;27;19947;-75
2022/04/27 07:45:36;;;;;;;;;;;11.50;99.90;;;;;;5154125;27;19926;-75
2022/04/27 07:48:01;;;;;;;;;;;11.60;99.90;;;;;;5154309;27;20033;-74
2022/04/27 07:50:27;;;;;;;;;;;11.70;99.90;;;;;;5154181;27;19944;-74
2022/04/27 07:52:52;;;;;;;;;;;11.80;99.90;;;;;;5151995;27;19907;-73
2022/04/27 07:55:18;;;;;;;;;;;11.90;99.90;;;;;;5152336;27;19990;-73
2022/04/27 07:57:45;;;;;;;;;;;12.00;99.90;;;;;;5154266;27;19907;-75
2022/04/27 08:00:12;;;;;;;;;;;11.90;99.90;;;;;;5154034;27;19917;-75
2022/04/27 08:02:38;;;;;;;;;;;11.90;99.90;;;;;;5153446;27;19942;-75
2022/04/27 08:05:04;;;;;;;;;;;11.90;99.90;;;;;;5152943;27;19957;-75
2022/04/27 08:07:37;;;;;;;;;;;12.00;99.90;;;;;;5153633;27;19919;-74
2022/04/27 08:10:12;;;;;;;;;;;12.00;99.90;;;;;;5154156;27;19911;-75
2022/04/27 08:12:39;;;;;;;;;;;12.00;99.90;;;;;;5153245;27;19987;-74
2022/04/27 08:15:05;;;;;;;;;;;12.10;99.90;;;;;;5154107;27;19911;-74
2022/04/27 08:17:30;;;;;;;;;;;12.20;99.90;;;;;;5153945;27;19959;-75
2022/04/27 08:21:13;;;;;;;;;;;12.30;99.90;;;;;;5154260;27;19914;-74
2022/04/27 08:22:42;;;;;;;;;;;12.30;99.90;;;;;;5153934;27;19960;-74
2022/04/27 08:25:07;;;;;;;;;;;12.40;99.90;;;;;;5153911;27;19911;-75
2022/04/27 08:27:33;;;;;;;;;;;12.50;99.90;;;;;;5153410;27;19915;-74
2022/04/27 08:29:59;;;;;;;;;;;12.50;99.90;;;;;;5154269;27;20376;-74
2022/04/27 08:32:24;;;;;;;;;;;12.50;99.90;;;;;;5153612;27;20005;-75
2022/04/27 08:34:50;;;;;;;;;;;12.50;99.90;;;;;;5153798;27;19911;-74
2022/04/27 08:37:15;;;;;;;;;;;12.60;99.90;;;;;;5153913;27;19930;-74
2022/04/27 08:39:41;;;;;;;;;;;12.50;99.90;;;;;;5153563;27;19907;-75
2022/04/27 08:42:09;;;;;;;;;;;12.40;99.90;;;;;;5153938;27;20232;-75
2022/04/27 08:44:35;;;;;;;;;;;12.30;99.90;;;;;;5153238;27;19915;-75
2022/04/27 08:47:02;;;;;;;;;;;12.20;99.90;;;;;;5154027;27;19930;-75
2022/04/27 08:49:32;;;;;;;;;;;12.20;99.90;;;;;;5153117;27;20328;-75
2022/04/27 08:52:00;;;;;;;;;;;12.20;99.90;;;;;;5154113;27;20395;-74
2022/04/27 08:54:26;;;;;;;;;;;12.00;99.90;;;;;;5152618;27;19907;-75
2022/04/27 08:56:52;;;;;;;;;;;12.10;99.90;;;;;;5153318;27;20006;-74
2022/04/27 08:59:18;;;;;;;;;;;12.10;99.90;;;;;;5153616;27;19914;-74
2022/04/27 09:01:44;;;;;;;;;;;12.20;99.90;;;;;;5152787;27;20276;-75
2022/04/27 09:04:14;;;;;;;;;;;12.30;99.90;;;;;;5154190;27;19907;-75
2022/04/27 09:06:40;;;;;;;;;;;12.40;99.90;;;;;;5154058;27;19922;-75
2022/04/27 09:09:10;;;;;;;;;;;12.50;99.90;;;;;;5154213;27;19908;-75
2022/04/27 09:11:37;;;;;;;;;;;12.70;99.90;;;;;;5153097;27;19907;-75
2022/04/27 09:14:07;;;;;;;;;;;12.60;99.90;;;;;;5153801;27;19987;-75
2022/04/27 09:22:05;;;;;;;;;;;12.50;99.90;;;;;;5157525;27;19914;-76
2022/04/27 09:24:50;;;;;;;;;;;12.50;99.90;;;;;;5156637;27;19907;-76
2022/04/27 09:27:18;;;;;;;;;;;12.50;99.90;;;;;;5157218;27;19915;-76
2022/04/27 09:29:53;;;;;;;;;;;12.40;99.90;;;;;;5156729;27;20005;-76
2022/04/27 09:32:19;;;;;;;;;;;12.50;99.90;;;;;;5158167;27;20006;-76
2022/04/27 09:34:45;;;;;;;;;;;12.50;99.90;;;;;;5156782;27;19976;-76
2022/04/27 09:37:16;;;;;;;;;;;12.50;99.90;;;;;;5156987;27;19949;-76
2022/04/27 09:39:42;;;;;;;;;;;12.50;99.90;;;;;;5156581;27;19908;-76
2022/04/27 09:42:10;;;;;;;;;;;12.50;99.90;;;;;;5157135;27;19907;-76
2022/04/27 09:44:39;;;;;;;;;;;12.40;99.90;;;;;;5156401;27;19922;-76
2022/04/27 09:47:05;;;;;;;;;;;12.30;99.90;;;;;;5156791;27;19915;-74
2022/04/27 09:49:31;;;;;;;;;;;12.50;99.90;;;;;;5156162;27;19914;-74
2022/04/27 09:51:58;;;;;;;;;;;12.60;99.90;;;;;;5138206;27;20259;-74
2022/04/27 09:54:28;;;;;;;;;;;12.90;99.90;;;;;;5156174;27;19911;-74
2022/04/27 09:56:55;;;;;;;;;;;12.90;99.90;;;;;;5156362;27;19923;-74
2022/04/27 09:59:29;;;;;;;;;;;12.70;99.90;;;;;;5156569;27;20010;-74
2022/04/27 10:01:59;;;;;;;;;;;12.60;99.90;;;;;;5156200;27;19959;-74
2022/04/27 10:04:28;;;;;;;;;;;12.70;99.90;;;;;;5155666;27;19942;-74
2022/04/27 10:06:56;;;;;;;;;;;12.60;99.90;;;;;;5137953;27;20266;-74
2022/04/27 10:09:22;;;;;;;;;;;12.60;99.90;;;;;;5156300;27;19907;-76
2022/04/27 10:11:48;;;;;;;;;;;12.70;99.90;;;;;;5137489;27;19907;-76
2022/04/27 10:14:13;;;;;;;;;;;12.80;99.90;;;;;;5156528;27;19984;-75
2022/04/27 10:16:39;;;;;;;;;;;12.90;99.90;;;;;;5155721;27;20005;-76
2022/04/27 10:19:08;;;;;;;;;;;12.60;99.90;;;;;;5156460;27;20291;-75
2022/04/27 10:21:39;;;;;;;;;;;12.60;99.90;;;;;;5155155;27;20208;-76
2022/04/27 10:24:07;;;;;;;;;;;12.70;99.90;;;;;;5155216;27;19911;-75
2022/04/27 10:26:33;;;;;;;;;;;12.80;99.90;;;;;;5154813;27;19922;-75
2022/04/27 10:29:00;;;;;;;;;;;13.00;99.90;;;;;;5155045;27;19907;-75
2022/04/27 10:31:55;;;;;;;;;;;12.90;99.90;;;;;;5154886;27;20705;-76
2022/04/27 10:34:21;;;;;;;;;;;12.90;99.90;;;;;;5132884;27;19907;-75
2022/04/27 10:36:48;;;;;;;;;;;13.00;99.90;;;;;;5154662;27;19949;-75
2022/04/27 10:39:14;;;;;;;;;;;13.00;99.90;;;;;;5155457;27;19915;-75
2022/04/27 10:41:48;;;;;;;;;;;13.00;99.90;;;;;;5154416;27;20283;-75
2022/04/27 10:44:14;;;;;;;;;;;12.90;99.90;;;;;;5154891;27;19907;-76
2022/04/27 10:46:41;;;;;;;;;;;13.00;99.90;;;;;;5153796;27;20352;-75
2022/04/27 10:49:19;;;;;;;;;;;13.00;99.90;;;;;;5154875;27;20001;-76
2022/04/27 10:51:58;;;;;;;;;;;13.10;99.90;;;;;;5154160;27;20492;-77
2022/04/27 10:54:27;;;;;;;;;;;13.10;99.90;;;;;;5154556;27;19999;-77
2022/04/27 10:56:53;;;;;;;;;;;13.00;99.90;;;;;;5154996;27;19919;-77
2022/04/27 10:59:42;;;;;;;;;;;13.10;99.90;;;;;;5154430;27;19955;-77
2022/04/27 11:02:27;;;;;;;;;;;13.30;99.90;;;;;;5154646;27;19907;-76
2022/04/27 11:04:53;;;;;;;;;;;13.00;99.90;;;;;;5154665;27;20419;-76
2022/04/27 11:07:24;;;;;;;;;;;13.00;99.90;;;;;;5154740;27;20009;-75
2022/04/27 11:09:59;;;;;;;;;;;13.10;99.90;;;;;;5154107;27;20252;-76
2022/04/27 11:12:25;;;;;;;;;;;13.10;99.90;;;;;;5154525;27;19946;-75
2022/04/27 11:14:57;;;;;;;;;;;13.20;99.90;;;;;;5154114;27;19975;-75
2022/04/27 11:17:28;;;;;;;;;;;13.30;99.90;;;;;;5154602;27;19915;-76
2022/04/27 11:19:54;;;;;;;;;;;13.20;99.90;;;;;;5154547;27;19913;-75
2022/04/27 11:22:20;;;;;;;;;;;13.20;99.90;;;;;;5154476;27;19907;-75
2022/04/27 11:24:47;;;;;;;;;;;13.20;99.90;;;;;;5153936;27;20400;-76
2022/04/27 11:27:12;;;;;;;;;;;13.40;99.90;;;;;;5154328;27;19998;-76
2022/04/27 11:29:38;;;;;;;;;;;13.40;99.90;;;;;;5153618;27;20002;-76
2022/04/27 11:32:05;;;;;;;;;;;13.60;99.90;;;;;;5154237;27;20272;-76
2022/04/27 11:34:33;;;;;;;;;;;13.60;99.90;;;;;;5154080;27;19967;-76
2022/04/27 11:37:11;;;;;;;;;;;13.10;99.90;;;;;;5154330;27;20257;-76
2022/04/27 11:39:37;;;;;;;;;;;13.10;99.90;;;;;;5153198;27;19914;-76
2022/04/27 11:42:03;;;;;;;;;;;13.10;99.90;;;;;;5153752;27;19907;-76
2022/04/27 11:44:34;;;;;;;;;;;13.00;99.90;;;;;;5153224;27;20001;-76
2022/04/27 11:47:00;;;;;;;;;;;13.00;99.90;;;;;;5154318;27;19915;-75
2022/04/27 11:49:25;;;;;;;;;;;13.00;99.90;;;;;;5153859;27;20316;-76
2022/04/27 11:51:51;;;;;;;;;;;13.00;99.90;;;;;;5153995;27;19914;-75
2022/04/27 11:54:27;;;;;;;;;;;13.10;99.90;;;;;;5154018;27;19907;-76
2022/04/27 11:56:56;;;;;;;;;;;13.20;99.90;;;;;;5154163;27;19919;-76
2022/04/27 11:59:22;;;;;;;;;;;13.40;99.90;;;;;;5153865;27;20259;-76
2022/04/27 12:01:51;;;;;;;;;;;13.30;99.90;;;;;;5153290;27;19911;-75
2022/04/27 12:04:17;;;;;;;;;;;13.20;99.90;;;;;;5153685;27;19908;-76
2022/04/27 12:06:44;;;;;;;;;;;13.00;99.90;;;;;;5153272;27;19915;-76
2022/04/27 12:09:17;;;;;;;;;;;13.10;99.90;;;;;;5153853;27;19907;-76
2022/04/27 12:11:42;;;;;;;;;;;13.00;99.90;;;;;;5153552;27;19914;-75
2022/04/27 12:14:08;;;;;;;;;;;13.40;99.90;;;;;;5135187;27;19907;-75
2022/04/27 12:16:34;;;;;;;;;;;13.70;99.90;;;;;;5153113;27;20253;-75
2022/04/27 12:19:00;;;;;;;;;;;13.90;99.90;;;;;;5153912;27;19907;-75
2022/04/27 12:21:26;;;;;;;;;;;13.70;99.90;;;;;;5153512;27;20431;-75
2022/04/27 12:23:53;;;;;;;;;;;13.90;99.90;;;;;;5135537;27;19915;-75
2022/04/27 12:26:19;;;;;;;;;;;14.00;99.90;;;;;;5153888;27;19937;-75
2022/04/27 12:28:47;;;;;;;;;;;14.10;99.90;;;;;;5152750;27;20387;-75
2022/04/27 12:31:16;;;;;;;;;;;14.20;99.90;;;;;;5153808;27;19952;-75
2022/04/27 12:33:46;;;;;;;;;;;14.10;99.90;;;;;;5153239;27;19907;-75
2022/04/27 12:38:59;;;;;;;;;;;14.00;99.90;;;;;;5153750;27;20018;-76
2022/04/27 12:41:32;;;;;;;;;;;13.80;99.90;;;;;;5153626;27;20385;-75
2022/04/27 12:44:01;;;;;;;;;;;13.70;99.90;;;;;;5153539;27;19907;-76
2022/04/27 12:46:27;;;;;;;;;;;13.50;99.90;;;;;;5153167;27;19968;-75
2022/04/27 12:49:00;;;;;;;;;;;13.20;99.90;;;;;;5153125;27;19907;-75
2022/04/27 12:51:28;;;;;;;;;;;13.10;99.90;;;;;;5153919;27;19956;-76
2022/04/27 12:53:54;;;;;;;;;;;13.20;99.90;;;;;;5157510;27;19914;-75
2022/04/27 12:56:22;;;;;;;;;;;13.20;99.90;;;;;;5157397;27;20232;-76
2022/04/27 12:59:06;;;;;;;;;;;13.30;99.90;;;;;;5156715;27;19908;-76
2022/04/27 13:01:31;;;;;;;;;;;13.30;99.90;;;;;;5156704;27;19952;-77
2022/04/27 13:03:57;;;;;;;;;;;13.40;99.90;;;;;;5156911;27;20338;-76
2022/04/27 13:06:23;;;;;;;;;;;13.30;99.90;;;;;;5146583;27;20368;-77
2022/04/27 13:08:51;;;;;;;;;;;13.50;99.90;;;;;;5140891;27;19920;-76
2022/04/27 13:14:02;;;;;;;;;;;13.30;99.90;;;;;;5141828;27;20431;-77
2022/04/27 13:16:27;;;;;;;;;;;13.40;99.90;;;;;;5143473;27;19951;-77
2022/04/27 13:18:55;;;;;;;;;;;13.50;99.90;;;;;;5144500;27;19958;-77
2022/04/27 13:21:20;;;;;;;;;;;13.80;99.90;;;;;;5145067;27;19918;-77
2022/04/27 13:23:46;;;;;;;;;;;14.10;99.90;;;;;;5141869;27;19911;-77
2022/04/27 13:26:12;;;;;;;;;;;13.90;99.90;;;;;;5143239;27;20014;-77
2022/04/27 13:28:40;;;;;;;;;;;14.20;99.90;;;;;;5142437;27;19914;-77
2022/04/27 13:31:09;;;;;;;;;;;14.20;99.90;;;;;;5143575;27;19968;-77
2022/04/27 13:33:34;;;;;;;;;;;14.30;99.90;;;;;;5123242;27;19915;-77
2022/04/27 13:36:00;;;;;;;;;;;14.20;99.90;;;;;;5141359;27;19980;-77
2022/04/27 13:38:29;;;;;;;;;;;14.10;99.90;;;;;;5143266;27;20376;-77
2022/04/27 13:40:55;;;;;;;;;;;14.20;99.90;;;;;;5142040;27;19922;-77
2022/04/27 13:43:20;;;;;;;;;;;14.30;99.90;;;;;;5127299;27;19915;-77
2022/04/27 13:45:46;;;;;;;;;;;14.30;99.90;;;;;;5144516;27;19919;-77
2022/04/27 13:48:12;;;;;;;;;;;14.50;99.90;;;;;;5141466;27;19908;-76
2022/04/27 13:50:39;;;;;;;;;;;13.90;99.90;;;;;;5142247;27;19911;-76
2022/04/27 13:53:04;;;;;;;;;;;13.70;99.90;;;;;;5143242;27;20283;-76
2022/04/27 13:55:32;;;;;;;;;;;13.70;99.90;;;;;;5137258;27;19994;-76
2022/04/27 13:57:57;;;;;;;;;;;13.70;99.90;;;;;;5156198;27;19906;-76
2022/04/27 14:00:23;;;;;;;;;;;13.70;99.90;;;;;;5144048;27;20329;-76
2022/04/27 14:02:49;;;;;;;;;;;13.90;99.90;;;;;;5134908;27;20498;-76
2022/04/27 14:05:14;;;;;;;;;;;13.90;99.90;;;;;;5135767;27;19918;-76
2022/04/27 14:07:42;;;;;;;;;;;14.00;99.90;;;;;;5136371;27;19915;-76
2022/04/27 14:10:08;;;;;;;;;;;13.90;99.90;;;;;;5156409;27;19932;-76
2022/04/27 14:15:18;;;;;;;;;;;13.90;99.90;;;;;;5140772;27;19914;-76
2022/04/27 14:20:28;;;;;;;;;;;13.70;99.90;;;;;;5136335;27;19917;-76
2022/04/27 14:22:54;;;;;;;;;;;13.70;99.90;;;;;;5135082;27;19990;-76
2022/04/27 14:25:19;;;;;;;;;;;13.60;99.90;;;;;;5136010;27;20380;-76
2022/04/27 14:27:45;;;;;;;;;;;13.50;99.90;;;;;;5134977;27;19923;-77
2022/04/27 14:30:11;;;;;;;;;;;13.60;99.90;;;;;;5135227;27;20315;-76
2022/04/27 14:32:37;;;;;;;;;;;13.70;99.90;;;;;;5134767;27;20006;-76
2022/04/27 14:35:03;;;;;;;;;;;13.60;99.90;;;;;;5116901;27;19938;-76
2022/04/27 14:37:28;;;;;;;;;;;13.50;99.90;;;;;;5116777;27;19990;-77
2022/04/27 14:39:54;;;;;;;;;;;13.60;99.90;;;;;;5134362;27;19958;-76
2022/04/27 14:42:21;;;;;;;;;;;13.60;99.90;;;;;;5134743;27;20375;-76
2022/04/27 14:44:46;;;;;;;;;;;13.40;99.90;;;;;;5134131;27;19907;-76
2022/04/27 14:47:12;;;;;;;;;;;13.20;99.90;;;;;;5135129;27;20041;-77
2022/04/27 14:49:38;;;;;;;;;;;13.10;99.90;;;;;;5116106;27;20375;-76
2022/04/27 14:52:04;;;;;;;;;;;13.00;99.90;;;;;;5135032;27;19952;-76
2022/04/27 14:54:30;;;;;;;;;;;12.70;99.90;;;;;;5134881;27;19908;-76